createdAt,value
2017-05-30T00:00:40.769Z,20.06
2017-05-30T00:01:41.464Z,20.03
2017-05-30T00:02:42.137Z,20
2017-05-30T00:03:42.822Z,20
2017-05-30T00:04:43.489Z,20
2017-05-30T00:05:44.166Z,19.99
2017-05-30T00:06:44.835Z,20.02
2017-05-30T00:07:45.512Z,19.95
2017-05-30T00:08:46.175Z,19.91
2017-05-30T00:09:46.837Z,19.86
2017-05-30T00:10:47.528Z,19.92
2017-05-30T00:11:48.197Z,19.86
2017-05-30T00:12:48.855Z,19.84
2017-05-30T00:13:49.522Z,19.88
2017-05-30T00:14:50.184Z,19.79
2017-05-30T00:15:50.841Z,19.79
2017-05-30T00:16:51.517Z,19.79
2017-05-30T00:17:52.184Z,19.79
2017-05-30T00:18:52.855Z,19.86
2017-05-30T00:19:53.532Z,19.74
2017-05-30T00:20:54.207Z,19.76
2017-05-30T00:21:54.885Z,19.84
2017-05-30T00:22:55.553Z,19.73
2017-05-30T00:23:56.226Z,19.84
2017-05-30T00:24:56.888Z,19.86
2017-05-30T00:25:57.570Z,19.82
2017-05-30T00:26:58.241Z,19.84
2017-05-30T00:27:58.901Z,19.88
2017-05-30T00:28:59.566Z,19.94
2017-05-30T00:30:00.245Z,19.94
2017-05-30T00:31:00.927Z,19.85
2017-05-30T00:32:01.588Z,19.89
2017-05-30T00:33:02.299Z,19.84
2017-05-30T00:34:02.963Z,19.88
2017-05-30T00:35:03.656Z,19.89
2017-05-30T00:36:04.322Z,19.86
2017-05-30T00:37:05.003Z,19.79
2017-05-30T00:38:05.693Z,19.85
2017-05-30T00:39:06.365Z,19.88
2017-05-30T00:40:07.097Z,19.82
2017-05-30T00:41:07.779Z,19.74
2017-05-30T00:42:08.446Z,19.77
2017-05-30T00:43:09.115Z,19.77
2017-05-30T00:44:09.816Z,19.7
2017-05-30T00:45:10.491Z,19.79
2017-05-30T00:46:11.157Z,19.77
2017-05-30T00:47:11.822Z,19.73
2017-05-30T00:48:12.490Z,19.71
2017-05-30T00:49:13.159Z,19.69
2017-05-30T00:50:13.833Z,19.81
2017-05-30T00:51:14.498Z,19.73
2017-05-30T00:52:15.175Z,19.69
2017-05-30T00:53:15.857Z,19.73
2017-05-30T00:54:16.523Z,19.66
2017-05-30T00:55:17.188Z,19.67
2017-05-30T00:56:17.859Z,19.77
2017-05-30T00:57:18.527Z,19.66
2017-05-30T00:58:19.210Z,19.69
2017-05-30T00:59:19.870Z,19.62
2017-05-30T01:00:20.560Z,19.58
2017-05-30T01:01:21.213Z,19.58
2017-05-30T01:02:21.898Z,19.63
2017-05-30T01:03:22.566Z,19.63
2017-05-30T01:04:23.238Z,19.7
2017-05-30T01:05:23.915Z,19.67
2017-05-30T01:06:24.601Z,19.69
2017-05-30T01:07:25.273Z,19.59
2017-05-30T01:08:25.943Z,19.67
2017-05-30T01:09:26.618Z,19.58
2017-05-30T01:10:27.286Z,19.64
2017-05-30T01:11:27.966Z,19.51
2017-05-30T01:12:28.634Z,19.56
2017-05-30T01:13:29.304Z,19.56
2017-05-30T01:14:29.964Z,19.56
2017-05-30T01:15:30.640Z,19.47
2017-05-30T01:16:31.314Z,19.49
2017-05-30T01:17:31.984Z,19.56
2017-05-30T01:18:32.655Z,19.47
2017-05-30T01:19:33.330Z,19.55
2017-05-30T01:20:34.014Z,19.54
2017-05-30T01:21:34.677Z,19.51
2017-05-30T01:22:35.336Z,19.51
2017-05-30T01:23:36.004Z,19.49
2017-05-30T01:24:36.681Z,19.45
2017-05-30T01:25:37.388Z,19.49
2017-05-30T01:26:38.071Z,19.45
2017-05-30T01:27:38.746Z,19.41
2017-05-30T01:28:39.409Z,19.4
2017-05-30T01:29:40.080Z,19.4
2017-05-30T01:30:40.771Z,19.36
2017-05-30T01:31:41.440Z,19.41
2017-05-30T01:32:42.108Z,19.37
2017-05-30T01:33:42.770Z,19.37
2017-05-30T01:34:43.445Z,19.4
2017-05-30T01:35:44.105Z,19.36
2017-05-30T01:36:44.781Z,19.37
2017-05-30T01:37:45.464Z,19.37
2017-05-30T01:38:46.139Z,19.4
2017-05-30T01:39:46.804Z,19.39
2017-05-30T01:40:47.480Z,19.37
2017-05-30T01:41:48.156Z,19.29
2017-05-30T01:42:48.827Z,19.34
2017-05-30T01:43:49.484Z,19.34
2017-05-30T01:44:50.160Z,19.39
2017-05-30T01:45:50.833Z,19.34
2017-05-30T01:46:51.506Z,19.36
2017-05-30T01:47:52.190Z,19.39
2017-05-30T01:48:52.903Z,19.34
2017-05-30T01:49:53.594Z,19.4
2017-05-30T01:50:54.258Z,19.44
2017-05-30T01:51:54.931Z,19.44
2017-05-30T01:52:55.603Z,19.36
2017-05-30T01:53:56.301Z,19.36
2017-05-30T01:54:56.967Z,19.24
2017-05-30T01:55:57.649Z,19.27
2017-05-30T01:56:58.321Z,19.24
2017-05-30T01:57:58.985Z,19.22
2017-05-30T01:59:06.545Z,19.31
2017-05-30T02:00:07.231Z,19.27
2017-05-30T02:01:07.897Z,19.31
2017-05-30T02:02:08.566Z,19.4
2017-05-30T02:03:09.256Z,19.36
2017-05-30T02:04:09.919Z,19.4
2017-05-30T02:05:10.582Z,19.37
2017-05-30T02:06:11.251Z,19.37
2017-05-30T02:07:11.916Z,19.31
2017-05-30T02:08:12.585Z,19.39
2017-05-30T02:09:13.252Z,19.33
2017-05-30T02:10:13.914Z,19.27
2017-05-30T02:11:14.621Z,19.21
2017-05-30T02:12:15.297Z,19.27
2017-05-30T02:13:15.965Z,19.39
2017-05-30T02:14:16.633Z,19.33
2017-05-30T02:15:17.295Z,19.45
2017-05-30T02:16:17.965Z,19.48
2017-05-30T02:17:18.634Z,19.37
2017-05-30T02:18:19.367Z,19.36
2017-05-30T02:19:20.035Z,19.49
2017-05-30T02:20:20.716Z,19.45
2017-05-30T02:21:21.390Z,19.48
2017-05-30T02:22:22.061Z,19.54
2017-05-30T02:23:22.725Z,19.44
2017-05-30T02:24:23.386Z,19.48
2017-05-30T02:25:24.088Z,19.48
2017-05-30T02:26:24.781Z,19.48
2017-05-30T02:27:25.442Z,19.44
2017-05-30T02:28:26.136Z,19.41
2017-05-30T02:29:26.828Z,19.36
2017-05-30T02:30:27.540Z,19.36
2017-05-30T02:31:28.210Z,19.31
2017-05-30T02:32:28.881Z,19.31
2017-05-30T02:33:29.538Z,19.39
2017-05-30T02:34:30.195Z,19.37
2017-05-30T02:35:30.871Z,19.29
2017-05-30T02:36:31.548Z,19.31
2017-05-30T02:37:32.205Z,19.3
2017-05-30T02:38:32.883Z,19.31
2017-05-30T02:39:33.552Z,19.26
2017-05-30T02:40:34.226Z,19.26
2017-05-30T02:41:34.896Z,19.31
2017-05-30T02:42:35.572Z,19.22
2017-05-30T02:43:36.234Z,19.16
2017-05-30T02:44:36.902Z,19.26
2017-05-30T02:45:37.557Z,19.12
2017-05-30T02:46:38.222Z,19.14
2017-05-30T02:47:38.890Z,19.14
2017-05-30T02:48:39.553Z,19.11
2017-05-30T02:49:40.236Z,19.18
2017-05-30T02:50:40.889Z,19.19
2017-05-30T02:51:41.582Z,19.16
2017-05-30T02:52:42.256Z,19.29
2017-05-30T02:53:42.940Z,19.26
2017-05-30T02:54:43.606Z,19.26
2017-05-30T02:55:44.270Z,19.31
2017-05-30T02:56:44.943Z,19.22
2017-05-30T02:57:45.621Z,19.31
2017-05-30T02:58:46.290Z,19.27
2017-05-30T02:59:46.956Z,19.26
2017-05-30T03:00:47.615Z,19.24
2017-05-30T03:01:48.304Z,19.36
2017-05-30T03:02:48.967Z,19.27
2017-05-30T03:03:49.640Z,19.29
2017-05-30T03:04:50.323Z,19.22
2017-05-30T03:05:50.987Z,19.24
2017-05-30T03:06:51.660Z,19.3
2017-05-30T03:07:52.337Z,19.26
2017-05-30T03:08:53.049Z,19.29
2017-05-30T03:09:53.723Z,19.21
2017-05-30T03:10:54.399Z,19.33
2017-05-30T03:11:55.079Z,19.27
2017-05-30T03:12:55.753Z,19.3
2017-05-30T03:13:56.434Z,19.24
2017-05-30T03:14:57.098Z,19.29
2017-05-30T03:15:57.802Z,19.31
2017-05-30T03:16:58.486Z,19.34
2017-05-30T03:17:59.172Z,19.3
2017-05-30T03:18:59.836Z,19.27
2017-05-30T03:20:00.501Z,19.22
2017-05-30T03:21:01.186Z,19.19
2017-05-30T03:22:01.860Z,19.3
2017-05-30T03:23:02.526Z,19.33
2017-05-30T03:24:03.199Z,19.27
2017-05-30T03:25:03.875Z,19.29
2017-05-30T03:26:04.550Z,19.26
2017-05-30T03:27:05.236Z,19.29
2017-05-30T03:28:05.904Z,19.27
2017-05-30T03:29:06.588Z,19.26
2017-05-30T03:30:07.303Z,19.24
2017-05-30T03:31:08.007Z,19.37
2017-05-30T03:32:08.692Z,19.3
2017-05-30T03:33:09.364Z,19.31
2017-05-30T03:34:10.032Z,19.34
2017-05-30T03:35:10.709Z,19.41
2017-05-30T03:36:11.386Z,19.36
2017-05-30T03:37:12.080Z,19.41
2017-05-30T03:38:12.754Z,19.45
2017-05-30T03:39:13.514Z,19.49
2017-05-30T03:40:14.180Z,19.48
2017-05-30T03:41:14.855Z,19.59
2017-05-30T03:42:15.547Z,19.62
2017-05-30T03:43:16.209Z,19.62
2017-05-30T03:44:16.891Z,19.59
2017-05-30T03:45:17.547Z,19.69
2017-05-30T03:46:18.219Z,19.67
2017-05-30T03:47:18.887Z,19.69
2017-05-30T03:48:19.555Z,19.69
2017-05-30T03:49:20.221Z,19.73
2017-05-30T03:50:20.899Z,19.74
2017-05-30T03:51:21.575Z,19.81
2017-05-30T03:52:22.237Z,19.7
2017-05-30T03:53:22.914Z,19.74
2017-05-30T03:54:23.589Z,19.76
2017-05-30T03:55:24.268Z,19.76
2017-05-30T03:56:24.937Z,19.76
2017-05-30T03:57:25.649Z,19.74
2017-05-30T03:58:26.315Z,19.77
2017-05-30T03:59:27.008Z,19.77
2017-05-30T04:00:27.675Z,19.56
2017-05-30T04:01:28.349Z,19.51
2017-05-30T04:02:29.049Z,19.41
2017-05-30T04:03:29.706Z,19.36
2017-05-30T04:04:30.420Z,19.27
2017-05-30T04:05:31.092Z,19.33
2017-05-30T04:06:31.764Z,19.21
2017-05-30T04:07:32.430Z,19.21
2017-05-30T04:08:33.119Z,19.16
2017-05-30T04:09:33.785Z,19.12
2017-05-30T04:10:34.467Z,19.08
2017-05-30T04:11:35.143Z,18.96
2017-05-30T04:12:35.808Z,18.98
2017-05-30T04:13:36.472Z,18.86
2017-05-30T04:14:37.130Z,18.93
2017-05-30T04:15:37.799Z,18.93
2017-05-30T04:16:38.460Z,18.93
2017-05-30T04:17:39.133Z,18.84
2017-05-30T04:18:39.805Z,18.93
2017-05-30T04:19:40.480Z,18.95
2017-05-30T04:20:41.155Z,18.96
2017-05-30T04:21:41.824Z,18.92
2017-05-30T04:22:42.488Z,18.93
2017-05-30T04:23:43.164Z,18.93
2017-05-30T04:24:43.834Z,18.93
2017-05-30T04:25:44.507Z,18.9
2017-05-30T04:26:45.175Z,18.92
2017-05-30T04:27:45.860Z,18.89
2017-05-30T04:28:46.547Z,18.93
2017-05-30T04:29:47.199Z,18.9
2017-05-30T04:30:47.899Z,18.89
2017-05-30T04:31:48.565Z,18.89
2017-05-30T04:32:49.261Z,18.83
2017-05-30T04:33:49.941Z,18.88
2017-05-30T04:34:50.602Z,18.77
2017-05-30T04:35:51.258Z,18.81
2017-05-30T04:36:51.981Z,18.88
2017-05-30T04:37:52.642Z,18.88
2017-05-30T04:38:53.297Z,18.86
2017-05-30T04:39:53.969Z,18.83
2017-05-30T04:40:54.645Z,18.92
2017-05-30T04:41:55.374Z,18.89
2017-05-30T04:42:56.158Z,18.89
2017-05-30T04:43:56.881Z,18.9
2017-05-30T04:44:57.694Z,18.92
2017-05-30T04:45:58.418Z,18.9
2017-05-30T04:46:59.085Z,18.88
2017-05-30T04:47:59.759Z,18.9
2017-05-30T04:49:01.523Z,18.89
2017-05-30T04:50:04.103Z,19
2017-05-30T04:51:06.772Z,18.84
2017-05-30T04:52:09.293Z,18.92
2017-05-30T04:53:11.222Z,18.86
2017-05-30T04:54:11.894Z,18.81
2017-05-30T04:55:12.611Z,18.9
2017-05-30T04:56:13.276Z,18.84
2017-05-30T04:57:13.935Z,18.83
2017-05-30T04:58:14.602Z,18.9
2017-05-30T04:59:15.280Z,18.89
2017-05-30T05:00:15.976Z,18.88
2017-05-30T05:01:16.692Z,18.88
2017-05-30T05:02:17.377Z,18.89
2017-05-30T05:03:18.045Z,18.83
2017-05-30T05:04:18.716Z,18.77
2017-05-30T05:05:19.397Z,18.88
2017-05-30T05:06:20.063Z,18.81
2017-05-30T05:07:20.724Z,18.89
2017-05-30T05:08:21.386Z,18.77
2017-05-30T05:09:22.054Z,18.92
2017-05-30T05:10:22.730Z,18.89
2017-05-30T05:11:23.484Z,18.92
2017-05-30T05:12:24.169Z,18.89
2017-05-30T05:13:24.868Z,18.88
2017-05-30T05:14:25.526Z,18.89
2017-05-30T05:15:26.190Z,18.96
2017-05-30T05:16:26.859Z,18.88
2017-05-30T05:17:27.534Z,18.92
2017-05-30T05:18:28.187Z,19.02
2017-05-30T05:19:28.864Z,18.92
2017-05-30T05:20:29.548Z,18.89
2017-05-30T05:21:30.224Z,18.93
2017-05-30T05:22:30.919Z,18.96
2017-05-30T05:23:31.617Z,19.02
2017-05-30T05:24:32.296Z,19.12
2017-05-30T05:25:32.964Z,19.19
2017-05-30T05:26:33.626Z,19.22
2017-05-30T05:27:34.305Z,19.3
2017-05-30T05:28:34.965Z,19.26
2017-05-30T05:29:35.666Z,19.27
2017-05-30T05:30:36.431Z,19.3
2017-05-30T05:31:37.113Z,19.37
2017-05-30T05:32:37.790Z,19.37
2017-05-30T05:33:38.450Z,19.47
2017-05-30T05:34:39.129Z,19.41
2017-05-30T05:35:39.806Z,19.48
2017-05-30T05:36:40.473Z,19.45
2017-05-30T05:37:41.147Z,19.48
2017-05-30T05:38:41.819Z,19.48
2017-05-30T05:39:42.492Z,19.55
2017-05-30T05:40:43.219Z,19.56
2017-05-30T05:41:43.877Z,19.56
2017-05-30T05:42:44.535Z,19.63
2017-05-30T05:43:45.212Z,19.58
2017-05-30T05:44:45.878Z,19.56
2017-05-30T05:45:46.559Z,19.62
2017-05-30T05:46:47.244Z,19.63
2017-05-30T05:47:47.899Z,19.59
2017-05-30T05:48:48.586Z,19.58
2017-05-30T05:49:49.273Z,19.64
2017-05-30T05:50:49.982Z,19.71
2017-05-30T05:51:50.648Z,19.77
2017-05-30T05:52:51.315Z,19.7
2017-05-30T05:53:51.991Z,19.81
2017-05-30T05:54:52.663Z,19.77
2017-05-30T05:55:53.355Z,19.74
2017-05-30T05:56:54.027Z,19.71
2017-05-30T05:57:54.692Z,19.73
2017-05-30T05:58:55.362Z,19.74
2017-05-30T05:59:56.034Z,19.74
2017-05-30T06:00:56.705Z,19.77
2017-05-30T06:01:57.362Z,19.76
2017-05-30T06:02:58.028Z,19.82
2017-05-30T06:03:58.704Z,19.88
2017-05-30T06:04:59.373Z,19.86
2017-05-30T06:06:00.050Z,19.79
2017-05-30T06:07:00.716Z,19.77
2017-05-30T06:08:01.407Z,19.76
2017-05-30T06:09:02.072Z,19.81
2017-05-30T06:10:02.767Z,19.77
2017-05-30T06:11:03.436Z,19.73
2017-05-30T06:12:04.125Z,19.79
2017-05-30T06:13:04.801Z,19.79
2017-05-30T06:14:05.460Z,19.79
2017-05-30T06:15:06.154Z,19.79
2017-05-30T06:16:06.817Z,19.7
2017-05-30T06:17:07.488Z,19.79
2017-05-30T06:18:08.156Z,19.74
2017-05-30T06:19:08.818Z,19.74
2017-05-30T06:20:09.491Z,19.77
2017-05-30T06:21:10.153Z,19.69
2017-05-30T06:22:10.815Z,19.73
2017-05-30T06:23:11.470Z,19.82
2017-05-30T06:24:12.131Z,19.79
2017-05-30T06:25:12.795Z,19.74
2017-05-30T06:26:13.472Z,19.82
2017-05-30T06:27:14.148Z,19.74
2017-05-30T06:28:14.822Z,19.73
2017-05-30T06:29:15.497Z,19.77
2017-05-30T06:30:16.177Z,19.73
2017-05-30T06:31:16.841Z,19.66
2017-05-30T06:32:17.511Z,19.7
2017-05-30T06:33:18.178Z,19.74
2017-05-30T06:34:18.856Z,19.71
2017-05-30T06:35:19.579Z,19.76
2017-05-30T06:36:20.274Z,19.66
2017-05-30T06:37:20.940Z,19.59
2017-05-30T06:38:21.619Z,19.62
2017-05-30T06:39:22.313Z,19.64
2017-05-30T06:40:22.989Z,19.56
2017-05-30T06:41:23.670Z,19.56
2017-05-30T06:42:24.333Z,19.54
2017-05-30T06:43:25.012Z,19.63
2017-05-30T06:44:25.695Z,19.51
2017-05-30T06:45:26.363Z,19.55
2017-05-30T06:46:27.086Z,19.54
2017-05-30T06:47:27.766Z,19.56
2017-05-30T06:48:28.425Z,19.55
2017-05-30T06:49:29.092Z,19.54
2017-05-30T06:50:29.769Z,19.55
2017-05-30T06:51:30.436Z,19.55
2017-05-30T06:52:31.114Z,19.49
2017-05-30T06:53:31.799Z,19.58
2017-05-30T06:54:32.460Z,19.51
2017-05-30T06:55:33.133Z,19.49
2017-05-30T06:56:33.797Z,19.54
2017-05-30T06:57:34.493Z,19.58
2017-05-30T06:58:35.192Z,19.58
2017-05-30T06:59:35.916Z,19.63
2017-05-30T07:00:36.599Z,19.67
2017-05-30T07:01:37.270Z,19.7
2017-05-30T07:02:37.960Z,19.69
2017-05-30T07:03:38.617Z,19.71
2017-05-30T07:04:39.289Z,19.71
2017-05-30T07:05:40.256Z,19.69
2017-05-30T07:06:40.942Z,19.73
2017-05-30T07:07:41.615Z,19.73
2017-05-30T07:08:42.291Z,19.76
2017-05-30T07:09:43.336Z,19.85
2017-05-30T07:10:44.003Z,19.76
2017-05-30T07:11:45.099Z,19.85
2017-05-30T07:12:45.968Z,19.84
2017-05-30T07:13:46.651Z,19.91
2017-05-30T07:14:47.335Z,19.88
2017-05-30T07:15:48.009Z,19.88
2017-05-30T07:16:48.705Z,19.96
2017-05-30T07:17:49.385Z,19.96
2017-05-30T07:18:50.065Z,20
2017-05-30T07:19:51.474Z,19.95
2017-05-30T07:20:53.976Z,20
2017-05-30T07:21:56.411Z,19.95
2017-05-30T07:22:58.668Z,20.04
2017-05-30T07:23:59.354Z,20
2017-05-30T07:25:00.076Z,20.09
2017-05-30T07:26:00.780Z,20.19
2017-05-30T07:27:01.481Z,20.18
2017-05-30T07:28:02.160Z,20.16
2017-05-30T07:29:02.858Z,20.16
2017-05-30T07:30:03.532Z,20.24
2017-05-30T07:31:04.203Z,20.11
2017-05-30T07:32:04.910Z,20.21
2017-05-30T07:33:05.589Z,20.25
2017-05-30T07:34:06.332Z,20.29
2017-05-30T07:35:07.035Z,20.29
2017-05-30T07:36:07.719Z,20.24
2017-05-30T07:37:08.470Z,20.29
2017-05-30T07:38:09.159Z,20.28
2017-05-30T07:39:09.836Z,20.31
2017-05-30T07:40:10.526Z,20.31
2017-05-30T07:41:11.199Z,20.44
2017-05-30T07:42:11.874Z,20.66
2017-05-30T07:43:12.546Z,20.85
2017-05-30T07:44:13.400Z,20.95
2017-05-30T07:45:14.085Z,21.37
2017-05-30T07:46:14.750Z,21.73
2017-05-30T07:47:15.425Z,22.06
2017-05-30T07:48:16.117Z,22.59
2017-05-30T07:49:16.820Z,22.94
2017-05-30T07:50:17.649Z,23.34
2017-05-30T07:51:18.339Z,23.41
2017-05-30T07:52:19.010Z,23.44
2017-05-30T07:53:19.682Z,23.28
2017-05-30T07:54:20.406Z,23.44
2017-05-30T07:55:21.077Z,23.76
2017-05-30T07:56:21.755Z,24.05
2017-05-30T07:57:22.438Z,24.3
2017-05-30T07:58:23.124Z,24.69
2017-05-30T07:59:23.826Z,25.08
2017-05-30T08:00:24.498Z,25.41
2017-05-30T08:01:25.193Z,25.59
2017-05-30T08:02:25.886Z,25.72
2017-05-30T08:03:26.564Z,25.63
2017-05-30T08:04:27.251Z,25.81
2017-05-30T08:05:27.946Z,25.96
2017-05-30T08:06:28.629Z,26.33
2017-05-30T08:07:29.308Z,26.25
2017-05-30T08:08:30.803Z,26.37
2017-05-30T08:09:31.481Z,26.63
2017-05-30T08:10:32.173Z,26.59
2017-05-30T08:11:32.871Z,26.44
2017-05-30T08:12:33.587Z,26.21
2017-05-30T08:13:34.267Z,26.28
2017-05-30T08:14:34.968Z,26.47
2017-05-30T08:15:35.662Z,26.84
2017-05-30T08:16:36.361Z,26.93
2017-05-30T08:17:37.087Z,27
2017-05-30T08:18:37.832Z,27.27
2017-05-30T08:19:38.489Z,27.22
2017-05-30T08:20:39.219Z,27.33
2017-05-30T08:21:39.891Z,27.39
2017-05-30T08:22:40.563Z,27.51
2017-05-30T08:23:41.287Z,27.48
2017-05-30T08:24:41.959Z,27.44
2017-05-30T08:25:42.659Z,27.51
2017-05-30T08:26:43.367Z,27.7
2017-05-30T08:27:44.055Z,27.82
2017-05-30T08:28:44.745Z,28
2017-05-30T08:29:45.430Z,27.98
2017-05-30T08:30:46.106Z,27.93
2017-05-30T08:31:46.812Z,27.82
2017-05-30T08:32:47.515Z,27.89
2017-05-30T08:33:48.214Z,27.64
2017-05-30T08:34:48.899Z,27.55
2017-05-30T08:35:49.649Z,27.55
2017-05-30T08:36:50.282Z,27.64
2017-05-30T08:37:50.968Z,27.55
2017-05-30T08:38:51.655Z,27.44
2017-05-30T08:39:52.333Z,27.25
2017-05-30T08:40:53.022Z,27.07
2017-05-30T08:41:53.703Z,26.99
2017-05-30T08:42:54.389Z,26.95
2017-05-30T08:43:55.070Z,27.12
2017-05-30T08:44:55.764Z,27.11
2017-05-30T08:45:56.476Z,27.12
2017-05-30T08:46:57.183Z,27.25
2017-05-30T08:47:57.881Z,27.2
2017-05-30T08:48:58.567Z,26.47
2017-05-30T08:49:59.243Z,26.16
2017-05-30T08:50:59.911Z,25.88
2017-05-30T08:52:00.595Z,25.62
2017-05-30T08:53:01.282Z,25.51
2017-05-30T08:54:01.972Z,25.46
2017-05-30T08:55:02.661Z,25.55
2017-05-30T08:56:03.396Z,25.63
2017-05-30T08:57:04.073Z,25.69
2017-05-30T08:58:04.761Z,25.68
2017-05-30T08:59:05.446Z,25.69
2017-05-30T09:00:06.126Z,25.65
2017-05-30T09:01:06.854Z,25.63
2017-05-30T09:02:07.517Z,25.59
2017-05-30T09:03:08.200Z,25.73
2017-05-30T09:04:08.912Z,25.75
2017-05-30T09:05:09.608Z,25.88
2017-05-30T09:06:10.286Z,26.07
2017-05-30T09:07:10.957Z,26.28
2017-05-30T09:08:11.737Z,26.29
2017-05-30T09:09:12.420Z,26.29
2017-05-30T09:10:13.108Z,26.38
2017-05-30T09:11:13.796Z,26.51
2017-05-30T09:12:14.485Z,26.75
2017-05-30T09:13:15.170Z,26.71
2017-05-30T09:14:15.854Z,26.77
2017-05-30T09:15:16.546Z,26.89
2017-05-30T09:16:17.239Z,26.96
2017-05-30T09:17:17.916Z,27.11
2017-05-30T09:18:18.614Z,27.22
2017-05-30T09:19:19.293Z,27.35
2017-05-30T09:20:19.983Z,27.27
2017-05-30T09:21:20.662Z,27.39
2017-05-30T09:22:21.335Z,27.37
2017-05-30T09:23:22.017Z,26.93
2017-05-30T09:24:22.695Z,26.66
2017-05-30T09:25:23.371Z,26.51
2017-05-30T09:26:24.061Z,26.48
2017-05-30T09:27:24.749Z,26.36
2017-05-30T09:28:25.461Z,26.29
2017-05-30T09:29:26.130Z,26.31
2017-05-30T09:30:26.819Z,26.38
2017-05-30T09:31:27.500Z,26.55
2017-05-30T09:32:28.178Z,26.89
2017-05-30T09:33:28.859Z,26.95
2017-05-30T09:34:29.555Z,27.03
2017-05-30T09:35:30.240Z,27.02
2017-05-30T09:36:30.927Z,26.9
2017-05-30T09:37:31.632Z,26.84
2017-05-30T09:38:32.310Z,26.6
2017-05-30T09:39:32.993Z,26.41
2017-05-30T09:40:33.682Z,26.4
2017-05-30T09:41:34.368Z,26.4
2017-05-30T09:42:35.051Z,26.48
2017-05-30T09:43:35.748Z,26.71
2017-05-30T09:44:36.434Z,26.84
2017-05-30T09:45:37.107Z,26.83
2017-05-30T09:46:37.789Z,26.66
2017-05-30T09:47:38.465Z,26.43
2017-05-30T09:48:39.146Z,26.31
2017-05-30T09:49:39.811Z,26.23
2017-05-30T09:50:40.482Z,26.21
2017-05-30T09:51:41.187Z,26.31
2017-05-30T09:52:41.879Z,26.15
2017-05-30T09:53:42.562Z,25.95
2017-05-30T09:54:43.258Z,25.9
2017-05-30T09:55:43.932Z,26.02
2017-05-30T09:56:44.621Z,26.16
2017-05-30T09:57:45.307Z,26.05
2017-05-30T09:58:45.988Z,25.91
2017-05-30T09:59:46.690Z,26.05
2017-05-30T10:00:47.372Z,25.96
2017-05-30T10:01:48.077Z,26.03
2017-05-30T10:02:48.747Z,25.95
2017-05-30T10:03:49.427Z,25.96
2017-05-30T10:04:50.101Z,25.96
2017-05-30T10:05:50.782Z,25.98
2017-05-30T10:06:51.454Z,25.98
2017-05-30T10:07:52.190Z,25.93
2017-05-30T10:08:52.875Z,26.07
2017-05-30T10:09:53.548Z,26.19
2017-05-30T10:10:54.250Z,26.23
2017-05-30T10:11:54.927Z,26.1
2017-05-30T10:12:55.616Z,26.1
2017-05-30T10:13:56.289Z,26.07
2017-05-30T10:14:56.959Z,26.18
2017-05-30T10:15:57.661Z,26.06
2017-05-30T10:16:58.344Z,25.88
2017-05-30T10:17:59.015Z,25.81
2017-05-30T10:18:59.692Z,25.69
2017-05-30T10:20:00.394Z,25.78
2017-05-30T10:21:01.079Z,25.72
2017-05-30T10:22:01.750Z,25.7
2017-05-30T10:23:02.449Z,25.36
2017-05-30T10:24:03.134Z,25.43
2017-05-30T10:25:03.817Z,25.38
2017-05-30T10:26:04.497Z,25.51
2017-05-30T10:27:05.196Z,25.62
2017-05-30T10:28:05.880Z,25.73
2017-05-30T10:29:06.577Z,25.87
2017-05-30T10:30:07.281Z,26.06
2017-05-30T10:31:07.954Z,26.09
2017-05-30T10:32:08.673Z,26.02
2017-05-30T10:33:09.393Z,25.93
2017-05-30T10:34:10.123Z,25.87
2017-05-30T10:35:10.874Z,25.85
2017-05-30T10:36:11.586Z,25.91
2017-05-30T10:37:12.270Z,25.95
2017-05-30T10:38:12.967Z,26.09
2017-05-30T10:39:13.641Z,25.95
2017-05-30T10:40:14.332Z,25.98
2017-05-30T10:41:15.030Z,25.87
2017-05-30T10:42:15.743Z,25.96
2017-05-30T10:43:16.436Z,25.93
2017-05-30T10:44:17.114Z,25.77
2017-05-30T10:45:17.789Z,25.78
2017-05-30T10:46:18.485Z,25.87
2017-05-30T10:47:19.179Z,25.87
2017-05-30T10:48:19.866Z,25.84
2017-05-30T10:49:20.557Z,25.96
2017-05-30T10:50:21.239Z,26.06
2017-05-30T10:51:21.944Z,26.06
2017-05-30T10:52:22.637Z,26.06
2017-05-30T10:53:23.333Z,26
2017-05-30T10:54:24.030Z,25.98
2017-05-30T10:55:24.719Z,26.03
2017-05-30T10:56:25.433Z,26.02
2017-05-30T10:57:26.184Z,25.99
2017-05-30T10:58:26.886Z,25.95
2017-05-30T10:59:27.579Z,25.99
2017-05-30T11:00:28.283Z,26.1
2017-05-30T11:01:28.966Z,26.07
2017-05-30T11:02:29.667Z,26.1
2017-05-30T11:03:30.359Z,26.15
2017-05-30T11:04:31.034Z,26.06
2017-05-30T11:05:31.730Z,26.09
2017-05-30T11:06:32.420Z,26.1
2017-05-30T11:07:33.113Z,26.1
2017-05-30T11:08:33.790Z,26.1
2017-05-30T11:09:34.477Z,26.13
2017-05-30T11:10:35.149Z,26.1
2017-05-30T11:11:35.873Z,26
2017-05-30T11:12:36.826Z,25.9
2017-05-30T11:13:37.505Z,25.81
2017-05-30T11:14:38.314Z,25.83
2017-05-30T11:15:39.130Z,25.73
2017-05-30T11:16:39.811Z,25.63
2017-05-30T11:17:40.555Z,25.5
2017-05-30T11:18:41.279Z,25.5
2017-05-30T11:19:42.069Z,25.44
2017-05-30T11:20:42.774Z,25.28
2017-05-30T11:21:43.448Z,25.38
2017-05-30T11:22:44.149Z,25.31
2017-05-30T11:23:44.869Z,25.31
2017-05-30T11:24:45.547Z,25.23
2017-05-30T11:25:46.239Z,25.22
2017-05-30T11:26:46.978Z,25.21
2017-05-30T11:27:47.685Z,25.25
2017-05-30T11:28:48.380Z,25.21
2017-05-30T11:29:49.045Z,25.22
2017-05-30T11:30:49.740Z,25.06
2017-05-30T11:31:50.479Z,24.92
2017-05-30T11:32:51.163Z,25.03
2017-05-30T11:33:51.835Z,24.96
2017-05-30T11:34:52.532Z,24.98
2017-05-30T11:35:53.242Z,24.95
2017-05-30T11:36:53.900Z,25.03
2017-05-30T11:37:54.617Z,25.01
2017-05-30T11:38:55.335Z,25.06
2017-05-30T11:39:56.016Z,24.96
2017-05-30T11:40:56.695Z,25.03
2017-05-30T11:41:57.381Z,24.96
2017-05-30T11:42:58.075Z,24.98
2017-05-30T11:43:58.760Z,25.03
2017-05-30T11:44:59.469Z,25.04
2017-05-30T11:46:00.151Z,25.14
2017-05-30T11:47:00.824Z,25.18
2017-05-30T11:48:01.503Z,25.1
2017-05-30T11:49:02.200Z,25.17
2017-05-30T11:50:02.918Z,25.25
2017-05-30T11:51:03.640Z,25.21
2017-05-30T11:52:04.336Z,25.16
2017-05-30T11:53:05.023Z,25.18
2017-05-30T11:54:05.742Z,25.18
2017-05-30T11:55:06.439Z,25.22
2017-05-30T11:56:07.147Z,25.26
2017-05-30T11:57:07.910Z,25.17
2017-05-30T11:58:08.803Z,25.17
2017-05-30T11:59:09.704Z,25.26
2017-05-30T12:00:10.381Z,25.29
2017-05-30T12:01:11.059Z,25.25
2017-05-30T12:02:11.732Z,25.16
2017-05-30T12:03:12.419Z,25.22
2017-05-30T12:04:13.119Z,25.16
2017-05-30T12:05:13.797Z,25.21
2017-05-30T12:06:14.509Z,25.23
2017-05-30T12:07:15.208Z,25.18
2017-05-30T12:08:15.885Z,25.1
2017-05-30T12:09:16.581Z,25.04
2017-05-30T12:10:17.279Z,24.92
2017-05-30T12:11:17.946Z,24.96
2017-05-30T12:12:18.659Z,25.03
2017-05-30T12:13:19.349Z,25.03
2017-05-30T12:14:20.091Z,25.06
2017-05-30T12:15:20.782Z,25.06
2017-05-30T12:16:21.467Z,25.1
2017-05-30T12:17:22.175Z,24.99
2017-05-30T12:18:22.862Z,25.08
2017-05-30T12:19:23.609Z,24.99
2017-05-30T12:20:24.396Z,24.99
2017-05-30T12:21:25.080Z,24.95
2017-05-30T12:22:25.763Z,24.93
2017-05-30T12:23:26.442Z,24.8
2017-05-30T12:24:27.116Z,24.85
2017-05-30T12:25:27.811Z,24.68
2017-05-30T12:26:28.510Z,24.7
2017-05-30T12:27:29.192Z,24.63
2017-05-30T12:28:29.876Z,24.65
2017-05-30T12:29:30.567Z,24.66
2017-05-30T12:30:31.249Z,24.76
2017-05-30T12:31:31.936Z,24.91
2017-05-30T12:32:32.755Z,24.95
2017-05-30T12:33:33.442Z,24.92
2017-05-30T12:34:34.131Z,24.99
2017-05-30T12:35:34.806Z,24.89
2017-05-30T12:36:35.482Z,24.93
2017-05-30T12:37:36.156Z,24.96
2017-05-30T12:38:36.874Z,25.1
2017-05-30T12:39:37.550Z,25.06
2017-05-30T12:40:38.227Z,25.08
2017-05-30T12:41:38.912Z,25.01
2017-05-30T12:42:39.629Z,25.03
2017-05-30T12:43:40.400Z,25.06
2017-05-30T12:44:41.073Z,25.08
2017-05-30T12:45:41.766Z,25.17
2017-05-30T12:46:42.456Z,25.21
2017-05-30T12:47:43.173Z,25.25
2017-05-30T12:48:43.848Z,25.08
2017-05-30T12:49:44.542Z,25.23
2017-05-30T12:50:45.239Z,25.22
2017-05-30T12:51:45.928Z,25.22
2017-05-30T12:52:46.630Z,25.16
2017-05-30T12:53:47.314Z,25.26
2017-05-30T12:54:48.006Z,25.25
2017-05-30T12:55:48.693Z,25.13
2017-05-30T12:56:49.382Z,25.17
2017-05-30T12:57:50.081Z,25.06
2017-05-30T12:58:50.769Z,25.14
2017-05-30T12:59:51.477Z,25.17
2017-05-30T13:00:52.189Z,25.18
2017-05-30T13:01:52.865Z,25.18
2017-05-30T13:02:53.562Z,25.21
2017-05-30T13:03:54.251Z,25.23
2017-05-30T13:04:55.040Z,25.23